Weather reports worldwide

Advertisment
Heino aws, Netherlands (6278): temperature & dewpoint: 17.10.2020 01:00:00 - 23.10.2020 01:00:00 (CEST)Heino aws, Netherlands (6278): temperature 5cm: 17.10.2020 01:00:00 - 23.10.2020 01:00:00 (CEST)Heino aws, Netherlands (6278): wind speed & gusts: 17.10.2020 01:00:00 - 23.10.2020 01:00:00 (CEST)Heino aws, Netherlands (6278): wind direction: 17.10.2020 01:00:00 - 23.10.2020 01:00:00 (CEST)Heino aws, Netherlands (6278): precipitation: 17.10.2020 01:00:00 - 23.10.2020 01:00:00 (CEST)
Date & Time tt [°C] td [°C] tt 5cm [°C] ff [km/h] ff [kn] fx [km/h] fx [kn] dd rr [mm]
23.10.2020 01:00:00 11,4 9,7 9,4 10 5 - - SW -
23.10.2020 00:00:00 11,4 9,5 9,5 11 6 18 10 SW 0,0
22.10.2020 23:00:00 11,7 9,4 9,8 7 4 14 8 SSW 0,0
22.10.2020 22:00:00 11,1 9,4 8,2 7 4 11 6 SSW 0,0
22.10.2020 21:00:00 12,1 9,6 9,6 7 4 14 8 SW 0,0
22.10.2020 20:00:00 11,0 9,5 7,7 4 2 11 6 SSW 0,0
22.10.2020 19:00:00 13,3 9,8 11,0 7 4 22 12 SSW 0,0
22.10.2020 18:00:00 15,2 10,0 14,1 14 8 25 14 SW 0,0
22.10.2020 17:00:00 15,4 10,0 14,6 14 8 29 16 SW 0,0
22.10.2020 16:00:00 15,6 9,7 14,9 18 10 32 18 WSW 0,0
22.10.2020 15:00:00 15,9 10,6 15,6 14 8 25 14 SW 0,0
22.10.2020 14:00:00 15,8 10,5 15,6 18 10 32 18 SSW 0,0
22.10.2020 13:00:00 16,2 10,1 16,5 18 10 32 18 SW 0,0
22.10.2020 12:00:00 16,3 11,1 17,4 18 10 29 16 SW 0,0
22.10.2020 11:00:00 15,1 11,2 15,8 14 8 29 16 SW 0,0
22.10.2020 10:00:00 14,1 11,5 14,1 18 10 32 18 SW 0,0
22.10.2020 09:00:00 13,6 11,5 12,7 14 8 29 16 SW 0,0
22.10.2020 08:00:00 14,0 11,8 12,8 14 8 25 14 SW 0,0
22.10.2020 07:00:00 14,0 11,9 12,9 11 6 29 16 SW 0,0
22.10.2020 06:00:00 14,5 12,1 13,4 11 6 22 12 SSW 0,0
22.10.2020 05:00:00 14,4 12,1 13,6 14 8 32 18 SW 0,0
22.10.2020 04:00:00 14,8 12,5 14,1 11 6 25 14 SSW 0,0
22.10.2020 03:00:00 14,2 12,1 12,7 14 8 25 14 SW 0,0
22.10.2020 02:00:00 14,4 11,8 13,1 14 8 32 18 SW 0,0
22.10.2020 01:00:00 15,0 11,7 14,2 22 12 47 25 WSW 0,0
22.10.2020 00:00:00 15,9 11,5 15,2 32 18 65 35 WSW 0,0
21.10.2020 23:00:00 17,0 11,6 16,1 32 18 65 35 SW 0,0
21.10.2020 22:00:00 17,9 11,9 17,2 36 19 68 37 WSW 0,0
21.10.2020 21:00:00 18,8 12,1 17,8 36 19 58 31 SW 0,0
21.10.2020 20:00:00 19,4 12,5 18,3 25 14 43 23 SW 0,0
21.10.2020 19:00:00 18,9 12,9 17,4 14 8 43 23 SW 0,1
21.10.2020 18:00:00 19,1 12,8 17,6 18 10 36 19 SSW 0,0
21.10.2020 17:00:00 19,0 12,6 17,7 14 8 40 21 S 0,0
21.10.2020 16:00:00 18,3 12,5 17,7 18 10 40 21 S 0,0
21.10.2020 15:00:00 17,1 11,7 17,5 18 10 40 21 S 0,0
21.10.2020 14:00:00 14,5 11,8 14,6 14 8 29 16 SSE 0,0
21.10.2020 13:00:00 13,4 12,3 13,5 14 8 29 16 SSE 0,4
21.10.2020 12:00:00 12,8 12,1 12,8 14 8 29 16 SSE 0,6
21.10.2020 11:00:00 12,3 11,7 12,2 11 6 25 14 SSE 0,8
21.10.2020 10:00:00 12,3 11,7 12,3 11 6 25 14 SSE 0,2
21.10.2020 09:00:00 12,4 11,9 12,2 11 6 22 12 SSE 0,9
21.10.2020 08:00:00 12,5 12,0 12,3 7 4 22 12 S 1,3
21.10.2020 07:00:00 12,6 12,1 12,4 11 6 18 10 SSE 0,6
21.10.2020 06:00:00 12,8 12,4 12,6 11 6 18 10 SSE 0,7
21.10.2020 05:00:00 12,7 12,3 12,5 7 4 18 10 SSE 0,6
21.10.2020 04:00:00 12,9 12,3 12,6 7 4 14 8 SSE 0,4
21.10.2020 03:00:00 13,3 12,5 13,1 7 4 14 8 S 0,0
21.10.2020 02:00:00 13,7 12,4 13,3 7 4 22 12 S 0,0
21.10.2020 01:00:00 13,9 12,4 13,5 7 4 22 12 S 0,0
21.10.2020 00:00:00 14,0 12,5 13,6 11 6 25 14 S 0,0
20.10.2020 23:00:00 14,0 12,5 13,6 11 6 25 14 S 0,0
20.10.2020 22:00:00 13,8 12,4 13,2 14 8 25 14 S 0,0
20.10.2020 21:00:00 13,7 12,2 13,0 14 8 25 14 S 0,0
20.10.2020 20:00:00 13,4 12,0 12,7 14 8 29 16 S 0,3
20.10.2020 19:00:00 13,1 11,6 12,5 11 6 25 14 S 0,1
20.10.2020 18:00:00 13,2 10,9 12,7 11 6 22 12 S 0,0
20.10.2020 17:00:00 13,0 10,5 12,5 11 6 22 12 S 0,0
20.10.2020 16:00:00 12,6 10,0 12,3 11 6 22 12 S 0,0
20.10.2020 15:00:00 12,0 9,6 11,7 11 6 22 12 S 0,1
20.10.2020 14:00:00 12,2 8,6 11,9 11 6 25 14 S 0,0
20.10.2020 13:00:00 11,8 7,8 11,3 11 6 25 14 S 0,0
20.10.2020 12:00:00 11,3 7,3 11,1 11 6 29 16 S 0,0
20.10.2020 11:00:00 10,0 6,4 9,7 11 6 22 12 S 0,0
20.10.2020 10:00:00 8,8 5,7 8,2 7 4 22 12 SSE 0,0
20.10.2020 09:00:00 8,2 4,7 7,5 11 6 22 12 SSE 0,0
20.10.2020 08:00:00 8,3 4,4 7,2 11 6 25 14 SSE 0,0
20.10.2020 07:00:00 7,6 4,2 6,7 11 6 22 12 SE 0,0
20.10.2020 06:00:00 7,2 4,2 6,3 11 6 22 12 ESE 0,0
20.10.2020 05:00:00 6,9 4,3 5,9 7 4 14 8 ESE 0,0
20.10.2020 04:00:00 7,3 4,4 6,5 11 6 18 10 ESE 0,0
20.10.2020 03:00:00 7,3 4,5 6,1 11 6 14 8 ESE 0,0
20.10.2020 02:00:00 7,4 4,6 5,6 11 6 14 8 ESE 0,0
20.10.2020 01:00:00 7,3 5,0 5,4 7 4 14 8 SE 0,0
20.10.2020 00:00:00 7,1 5,2 4,4 7 4 11 6 ESE 0,0
19.10.2020 23:00:00 7,6 5,5 5,2 7 4 11 6 SE 0,0
19.10.2020 22:00:00 7,3 5,7 4,3 7 4 14 8 SE 0,0
19.10.2020 21:00:00 7,3 6,3 3,2 7 4 11 6 ESE 0,0
19.10.2020 20:00:00 7,0 6,7 5,1 4 2 11 6 ESE 0,0
19.10.2020 19:00:00 6,6 5,7 3,9 4 2 7 4 ESE 0,0
19.10.2020 18:00:00 10,2 7,5 8,5 4 2 11 6 SSE 0,0
19.10.2020 17:00:00 12,2 7,8 12,9 7 4 18 10 SSE 0,0
19.10.2020 16:00:00 11,7 7,9 12,0 7 4 11 6 S 0,0
19.10.2020 15:00:00 11,6 8,3 12,1 7 4 18 10 SSW 0,0
19.10.2020 14:00:00 11,5 8,5 12,5 11 6 22 12 S 0,0
19.10.2020 13:00:00 11,1 8,5 11,8 7 4 18 10 SSW 0,0
19.10.2020 12:00:00 10,8 9,3 11,7 7 4 18 10 S 0,0
19.10.2020 11:00:00 9,7 8,7 10,4 7 4 14 8 SW 0,0
19.10.2020 10:00:00 8,7 8,4 9,0 7 4 11 6 SSW 0,0
19.10.2020 09:00:00 7,5 7,3 7,4 4 2 11 6 SW 0,0
19.10.2020 08:00:00 7,1 6,9 6,3 7 4 11 6 SSW 0,0
19.10.2020 07:00:00 6,9 6,8 5,9 7 4 11 6 SSW 0,0
19.10.2020 06:00:00 6,8 6,7 6,1 7 4 14 8 SSW 0,0
19.10.2020 05:00:00 6,6 6,5 6,1 7 4 7 4 SW 0,0
19.10.2020 04:00:00 6,4 6,3 5,7 4 2 7 4 SSW 0,0
19.10.2020 03:00:00 6,3 6,2 5,9 4 2 7 4 SW 0,0
19.10.2020 02:00:00 6,4 6,4 5,6 4 2 14 8 W 0,0
19.10.2020 01:00:00 5,9 5,8 2,4 4 2 7 4 WSW 0,0
19.10.2020 00:00:00 7,3 7,2 4,5 4 2 7 4 WSW 0,0
18.10.2020 23:00:00 8,8 8,6 8,2 4 2 11 6 SW 0,1
18.10.2020 22:00:00 9,3 8,5 9,0 7 4 11 6 W 0,0
18.10.2020 21:00:00 8,9 8,1 8,5 4 2 7 4 W 0,0
18.10.2020 20:00:00 9,1 8,2 8,4 4 2 11 6 WSW 0,0
18.10.2020 19:00:00 9,4 7,9 9,0 7 4 11 6 W 0,0
18.10.2020 18:00:00 10,9 7,9 10,6 7 4 14 8 W 0,0
18.10.2020 17:00:00 11,7 8,3 11,9 11 6 22 12 W 0,0
18.10.2020 16:00:00 11,9 8,7 12,3 11 6 22 12 W 0,0
18.10.2020 15:00:00 12,1 9,0 12,7 14 8 22 12 W 0,0
18.10.2020 14:00:00 11,6 9,5 11,5 11 6 22 12 W 0,0
18.10.2020 13:00:00 10,9 9,6 11,5 11 6 22 12 W 0,1
18.10.2020 12:00:00 11,5 10,0 13,0 7 4 14 8 WSW 0,0
18.10.2020 11:00:00 9,5 9,0 10,9 7 4 11 6 SW 0,0
18.10.2020 10:00:00 8,0 8,0 8,4 7 4 11 6 SW 0,0
18.10.2020 09:00:00 7,4 7,3 7,4 7 4 14 8 SW 0,0
18.10.2020 08:00:00 6,9 6,9 6,9 7 4 11 6 WSW 0,0
18.10.2020 07:00:00 6,3 6,3 6,3 7 4 11 6 SW 0,0
18.10.2020 06:00:00 5,3 5,2 5,1 7 4 14 8 SW 0,0
18.10.2020 05:00:00 4,2 4,1 3,8 7 4 11 6 SW 0,0
18.10.2020 04:00:00 3,7 3,5 -1,2 7 4 11 6 SW 0,0
18.10.2020 03:00:00 1,9 1,8 -0,9 4 2 4 2 SSW 0,0
18.10.2020 02:00:00 2,2 2,2 -1,1 4 2 7 4 W 0,0
18.10.2020 01:00:00 2,1 2,0 -0,8 0 0 4 2 N 0,0
18.10.2020 00:00:00 2,3 2,1 -0,8 4 2 4 2 SSW 0,0
17.10.2020 23:00:00 3,1 3,0 0,0 0 0 4 2 N 0,0
17.10.2020 22:00:00 3,7 3,6 0,5 0 0 4 2 N 0,0
17.10.2020 21:00:00 4,5 4,4 0,8 0 0 4 2 N 0,0
17.10.2020 20:00:00 5,5 5,3 2,5 0 0 4 2 N 0,0
17.10.2020 19:00:00 7,0 6,1 4,9 0 0 11 6 N 0,0
17.10.2020 18:00:00 11,2 7,5 11,1 4 2 7 4 NE 0,0
17.10.2020 17:00:00 11,3 6,6 11,4 0 0 4 2 N 0,0
17.10.2020 16:00:00 11,7 6,6 12,0 0 0 7 4 N 0,0
17.10.2020 15:00:00 11,4 6,8 11,9 0 0 4 2 N 0,0
17.10.2020 14:00:00 11,0 6,2 12,0 4 2 7 4 S 0,0
17.10.2020 13:00:00 10,8 6,9 12,2 0 0 7 4 N 0,0
17.10.2020 12:00:00 10,2 6,7 11,4 4 2 7 4 SW 0,0
17.10.2020 11:00:00 9,3 6,4 9,6 4 2 7 4 S 0,0
17.10.2020 10:00:00 8,6 7,8 8,7 4 2 7 4 SE 0,0
17.10.2020 09:00:00 7,4 7,1 7,5 4 2 4 2 S 0,0
17.10.2020 08:00:00 7,0 6,7 7,1 0 0 4 2 N 0,0
17.10.2020 07:00:00 6,8 6,7 6,9 0 0 11 6 N 0,0
17.10.2020 06:00:00 6,7 6,4 6,7 0 0 4 2 N 0,0
17.10.2020 05:00:00 6,6 6,3 6,2 4 2 4 2 ESE 0,0
17.10.2020 04:00:00 6,7 6,6 6,4 0 0 4 2 N 0,0
17.10.2020 03:00:00 6,9 6,6 6,7 4 2 4 2 WSW 0,0
17.10.2020 02:00:00 7,1 6,5 7,1 4 2 4 2 WSW 0,0
17.10.2020 01:00:00 7,0 6,6 6,9 4 2 4 2 WSW 0,0

tt = temperature
td = dewpoint
tt 5cm = temperature 5cm
ff = wind speed
fx = gusts
dd = wind direction
rr = precipitation

Next stations